sensor_id;sensor_type;location;lat;lon;timestamp;P1;durP1;ratioP1;P2;durP2;ratioP2
20890;SDS011;10605;52.968;8.844;2023-07-13T00:00:20;10.93;;;8.07;;
20890;SDS011;10605;52.968;8.844;2023-07-13T00:02:47;10.13;;;7.78;;
20890;SDS011;10605;52.968;8.844;2023-07-13T00:05:12;13.45;;;8.38;;
20890;SDS011;10605;52.968;8.844;2023-07-13T00:07:38;16.23;;;8.65;;
20890;SDS011;10605;52.968;8.844;2023-07-13T00:10:04;16.50;;;8.20;;
20890;SDS011;10605;52.968;8.844;2023-07-13T00:12:33;16.02;;;8.48;;
20890;SDS011;10605;52.968;8.844;2023-07-13T00:15:02;10.85;;;8.23;;
20890;SDS011;10605;52.968;8.844;2023-07-13T00:17:35;12.20;;;9.23;;
20890;SDS011;10605;52.968;8.844;2023-07-13T00:20:00;10.93;;;8.48;;
20890;SDS011;10605;52.968;8.844;2023-07-13T00:22:26;11.60;;;8.57;;
20890;SDS011;10605;52.968;8.844;2023-07-13T00:24:52;8.85;;;7.95;;
20890;SDS011;10605;52.968;8.844;2023-07-13T00:27:21;12.52;;;8.80;;
20890;SDS011;10605;52.968;8.844;2023-07-13T00:29:46;17.15;;;9.38;;
20890;SDS011;10605;52.968;8.844;2023-07-13T00:32:12;17.08;;;8.65;;
20890;SDS011;10605;52.968;8.844;2023-07-13T00:34:38;10.75;;;8.65;;
20890;SDS011;10605;52.968;8.844;2023-07-13T00:37:04;13.35;;;9.07;;
20890;SDS011;10605;52.968;8.844;2023-07-13T00:39:34;17.73;;;9.93;;
20890;SDS011;10605;52.968;8.844;2023-07-13T00:42:00;13.13;;;8.70;;
20890;SDS011;10605;52.968;8.844;2023-07-13T00:44:27;13.38;;;9.07;;
20890;SDS011;10605;52.968;8.844;2023-07-13T00:46:53;13.70;;;9.27;;
20890;SDS011;10605;52.968;8.844;2023-07-13T00:49:22;12.05;;;9.23;;
20890;SDS011;10605;52.968;8.844;2023-07-13T00:51:50;18.73;;;11.05;;
20890;SDS011;10605;52.968;8.844;2023-07-13T00:54:20;17.55;;;9.75;;
20890;SDS011;10605;52.968;8.844;2023-07-13T00:56:54;14.52;;;10.30;;
20890;SDS011;10605;52.968;8.844;2023-07-13T00:59:23;13.48;;;9.80;;
20890;SDS011;10605;52.968;8.844;2023-07-13T01:01:50;20.08;;;10.93;;
20890;SDS011;10605;52.968;8.844;2023-07-13T01:04:16;18.35;;;11.23;;
20890;SDS011;10605;52.968;8.844;2023-07-13T01:06:42;14.75;;;11.68;;
20890;SDS011;10605;52.968;8.844;2023-07-13T01:09:09;14.10;;;11.23;;
20890;SDS011;10605;52.968;8.844;2023-07-13T01:11:35;20.33;;;12.10;;
20890;SDS011;10605;52.968;8.844;2023-07-13T01:14:02;15.45;;;12.10;;
20890;SDS011;10605;52.968;8.844;2023-07-13T01:16:29;18.65;;;11.48;;
20890;SDS011;10605;52.968;8.844;2023-07-13T01:18:57;18.60;;;11.73;;
20890;SDS011;10605;52.968;8.844;2023-07-13T01:21:29;17.65;;;12.15;;
20890;SDS011;10605;52.968;8.844;2023-07-13T01:23:57;21.23;;;11.38;;
20890;SDS011;10605;52.968;8.844;2023-07-13T01:26:23;24.25;;;12.38;;
20890;SDS011;10605;52.968;8.844;2023-07-13T01:28:48;22.85;;;12.30;;
20890;SDS011;10605;52.968;8.844;2023-07-13T01:31:14;18.30;;;12.00;;
20890;SDS011;10605;52.968;8.844;2023-07-13T01:33:40;13.07;;;11.25;;
20890;SDS011;10605;52.968;8.844;2023-07-13T01:36:06;26.88;;;12.27;;
20890;SDS011;10605;52.968;8.844;2023-07-13T01:38:33;15.48;;;12.38;;
20890;SDS011;10605;52.968;8.844;2023-07-13T01:41:00;17.60;;;12.10;;
20890;SDS011;10605;52.968;8.844;2023-07-13T01:43:27;14.57;;;12.07;;
20890;SDS011;10605;52.968;8.844;2023-07-13T01:45:53;21.52;;;12.73;;
20890;SDS011;10605;52.968;8.844;2023-07-13T01:48:18;19.70;;;12.40;;
20890;SDS011;10605;52.968;8.844;2023-07-13T01:50:45;19.88;;;12.70;;
20890;SDS011;10605;52.968;8.844;2023-07-13T01:53:11;21.42;;;13.40;;
20890;SDS011;10605;52.968;8.844;2023-07-13T01:55:37;16.58;;;13.13;;
20890;SDS011;10605;52.968;8.844;2023-07-13T01:58:03;20.52;;;13.88;;
20890;SDS011;10605;52.968;8.844;2023-07-13T02:00:29;16.92;;;13.63;;
20890;SDS011;10605;52.968;8.844;2023-07-13T02:02:56;21.70;;;13.98;;
20890;SDS011;10605;52.968;8.844;2023-07-13T02:05:22;27.02;;;14.73;;
20890;SDS011;10605;52.968;8.844;2023-07-13T02:07:48;25.52;;;13.73;;
20890;SDS011;10605;52.968;8.844;2023-07-13T02:10:14;21.05;;;13.52;;
20890;SDS011;10605;52.968;8.844;2023-07-13T02:12:40;24.25;;;13.65;;
20890;SDS011;10605;52.968;8.844;2023-07-13T02:15:06;20.77;;;13.70;;
20890;SDS011;10605;52.968;8.844;2023-07-13T02:17:32;21.98;;;13.23;;
20890;SDS011;10605;52.968;8.844;2023-07-13T02:19:58;19.45;;;12.50;;
20890;SDS011;10605;52.968;8.844;2023-07-13T02:22:24;24.88;;;14.60;;
20890;SDS011;10605;52.968;8.844;2023-07-13T02:24:50;16.20;;;11.82;;
20890;SDS011;10605;52.968;8.844;2023-07-13T02:27:15;26.35;;;11.48;;
20890;SDS011;10605;52.968;8.844;2023-07-13T02:29:41;30.58;;;11.98;;
20890;SDS011;10605;52.968;8.844;2023-07-13T02:32:07;19.55;;;10.18;;
20890;SDS011;10605;52.968;8.844;2023-07-13T02:34:33;16.98;;;9.88;;
20890;SDS011;10605;52.968;8.844;2023-07-13T02:36:59;28.42;;;9.48;;
20890;SDS011;10605;52.968;8.844;2023-07-13T02:39:25;23.60;;;10.23;;
20890;SDS011;10605;52.968;8.844;2023-07-13T02:41:50;15.45;;;8.93;;
20890;SDS011;10605;52.968;8.844;2023-07-13T02:44:16;20.70;;;8.90;;
20890;SDS011;10605;52.968;8.844;2023-07-13T02:46:42;25.60;;;9.50;;
20890;SDS011;10605;52.968;8.844;2023-07-13T02:49:07;21.05;;;9.60;;
20890;SDS011;10605;52.968;8.844;2023-07-13T02:51:33;12.52;;;8.23;;
20890;SDS011;10605;52.968;8.844;2023-07-13T02:54:00;17.23;;;8.13;;
20890;SDS011;10605;52.968;8.844;2023-07-13T02:56:27;21.10;;;7.85;;
20890;SDS011;10605;52.968;8.844;2023-07-13T02:58:54;22.98;;;8.32;;
20890;SDS011;10605;52.968;8.844;2023-07-13T03:01:20;19.90;;;7.15;;
20890;SDS011;10605;52.968;8.844;2023-07-13T03:03:47;17.08;;;7.40;;
20890;SDS011;10605;52.968;8.844;2023-07-13T03:06:13;25.80;;;7.03;;
20890;SDS011;10605;52.968;8.844;2023-07-13T03:08:40;18.55;;;6.93;;
20890;SDS011;10605;52.968;8.844;2023-07-13T03:11:08;19.38;;;6.65;;
20890;SDS011;10605;52.968;8.844;2023-07-13T03:13:36;17.92;;;7.63;;
20890;SDS011;10605;52.968;8.844;2023-07-13T03:16:03;18.48;;;6.75;;
20890;SDS011;10605;52.968;8.844;2023-07-13T03:18:29;24.98;;;5.40;;
20890;SDS011;10605;52.968;8.844;2023-07-13T03:20:54;19.35;;;5.90;;
20890;SDS011;10605;52.968;8.844;2023-07-13T03:23:20;21.33;;;5.75;;
20890;SDS011;10605;52.968;8.844;2023-07-13T03:25:47;21.80;;;5.38;;
20890;SDS011;10605;52.968;8.844;2023-07-13T03:28:13;17.77;;;5.40;;
20890;SDS011;10605;52.968;8.844;2023-07-13T03:30:40;18.85;;;5.63;;
20890;SDS011;10605;52.968;8.844;2023-07-13T03:33:06;12.77;;;4.63;;
20890;SDS011;10605;52.968;8.844;2023-07-13T03:35:32;11.07;;;4.20;;
20890;SDS011;10605;52.968;8.844;2023-07-13T03:37:58;19.33;;;4.63;;
20890;SDS011;10605;52.968;8.844;2023-07-13T03:40:25;15.27;;;4.45;;
20890;SDS011;10605;52.968;8.844;2023-07-13T03:42:51;12.75;;;5.00;;
20890;SDS011;10605;52.968;8.844;2023-07-13T03:45:17;11.00;;;4.22;;
20890;SDS011;10605;52.968;8.844;2023-07-13T03:47:43;20.38;;;4.35;;
20890;SDS011;10605;52.968;8.844;2023-07-13T03:50:09;21.90;;;5.28;;
20890;SDS011;10605;52.968;8.844;2023-07-13T03:52:35;10.10;;;3.72;;
20890;SDS011;10605;52.968;8.844;2023-07-13T03:55:01;24.77;;;4.28;;
20890;SDS011;10605;52.968;8.844;2023-07-13T03:57:26;15.40;;;4.30;;
20890;SDS011;10605;52.968;8.844;2023-07-13T03:59:52;15.38;;;3.92;;
20890;SDS011;10605;52.968;8.844;2023-07-13T04:02:18;16.52;;;3.92;;
20890;SDS011;10605;52.968;8.844;2023-07-13T04:04:43;20.60;;;4.47;;
20890;SDS011;10605;52.968;8.844;2023-07-13T04:07:09;11.82;;;4.00;;
20890;SDS011;10605;52.968;8.844;2023-07-13T04:09:35;10.82;;;3.60;;
20890;SDS011;10605;52.968;8.844;2023-07-13T04:12:01;12.65;;;4.05;;
20890;SDS011;10605;52.968;8.844;2023-07-13T04:14:27;15.43;;;3.60;;
20890;SDS011;10605;52.968;8.844;2023-07-13T04:16:52;23.85;;;4.15;;
20890;SDS011;10605;52.968;8.844;2023-07-13T04:19:19;14.80;;;3.85;;
20890;SDS011;10605;52.968;8.844;2023-07-13T04:21:45;15.13;;;3.72;;
20890;SDS011;10605;52.968;8.844;2023-07-13T04:24:11;20.50;;;4.30;;
20890;SDS011;10605;52.968;8.844;2023-07-13T04:26:37;16.88;;;3.80;;
20890;SDS011;10605;52.968;8.844;2023-07-13T04:29:04;10.05;;;3.70;;
20890;SDS011;10605;52.968;8.844;2023-07-13T04:31:31;12.82;;;3.17;;
20890;SDS011;10605;52.968;8.844;2023-07-13T04:33:57;15.68;;;3.58;;
20890;SDS011;10605;52.968;8.844;2023-07-13T04:36:23;13.43;;;4.03;;
20890;SDS011;10605;52.968;8.844;2023-07-13T04:38:52;14.55;;;3.97;;
20890;SDS011;10605;52.968;8.844;2023-07-13T04:41:18;18.33;;;4.38;;
20890;SDS011;10605;52.968;8.844;2023-07-13T04:43:45;20.05;;;3.88;;
20890;SDS011;10605;52.968;8.844;2023-07-13T04:46:11;11.05;;;2.80;;
20890;SDS011;10605;52.968;8.844;2023-07-13T04:48:40;21.85;;;4.15;;
20890;SDS011;10605;52.968;8.844;2023-07-13T04:51:06;22.35;;;3.88;;
20890;SDS011;10605;52.968;8.844;2023-07-13T04:53:32;10.90;;;3.42;;
20890;SDS011;10605;52.968;8.844;2023-07-13T04:55:59;16.77;;;3.63;;
20890;SDS011;10605;52.968;8.844;2023-07-13T04:58:25;16.70;;;3.88;;
20890;SDS011;10605;52.968;8.844;2023-07-13T05:00:52;17.92;;;3.25;;
20890;SDS011;10605;52.968;8.844;2023-07-13T05:03:23;18.90;;;3.45;;
20890;SDS011;10605;52.968;8.844;2023-07-13T05:06:00;14.93;;;3.85;;
20890;SDS011;10605;52.968;8.844;2023-07-13T05:08:28;15.88;;;3.45;;
20890;SDS011;10605;52.968;8.844;2023-07-13T05:10:54;17.98;;;3.42;;
20890;SDS011;10605;52.968;8.844;2023-07-13T05:13:19;15.60;;;3.40;;
20890;SDS011;10605;52.968;8.844;2023-07-13T05:15:46;16.23;;;2.60;;
20890;SDS011;10605;52.968;8.844;2023-07-13T05:18:19;16.63;;;3.38;;
20890;SDS011;10605;52.968;8.844;2023-07-13T05:20:45;11.82;;;2.88;;
20890;SDS011;10605;52.968;8.844;2023-07-13T05:23:11;12.50;;;2.83;;
20890;SDS011;10605;52.968;8.844;2023-07-13T05:25:36;12.50;;;3.35;;
20890;SDS011;10605;52.968;8.844;2023-07-13T05:28:02;15.00;;;2.60;;
20890;SDS011;10605;52.968;8.844;2023-07-13T05:30:27;21.88;;;2.90;;
20890;SDS011;10605;52.968;8.844;2023-07-13T05:32:53;11.98;;;3.00;;
20890;SDS011;10605;52.968;8.844;2023-07-13T05:35:19;18.75;;;2.90;;
20890;SDS011;10605;52.968;8.844;2023-07-13T05:37:45;15.57;;;2.90;;
20890;SDS011;10605;52.968;8.844;2023-07-13T05:40:10;15.90;;;3.15;;
20890;SDS011;10605;52.968;8.844;2023-07-13T05:42:36;16.73;;;3.20;;
20890;SDS011;10605;52.968;8.844;2023-07-13T05:45:02;11.55;;;2.88;;
20890;SDS011;10605;52.968;8.844;2023-07-13T05:47:28;8.63;;;2.80;;
20890;SDS011;10605;52.968;8.844;2023-07-13T05:49:53;11.95;;;3.40;;
20890;SDS011;10605;52.968;8.844;2023-07-13T05:52:19;9.60;;;2.42;;
20890;SDS011;10605;52.968;8.844;2023-07-13T05:54:44;9.77;;;2.42;;
20890;SDS011;10605;52.968;8.844;2023-07-13T05:57:10;8.25;;;2.45;;
20890;SDS011;10605;52.968;8.844;2023-07-13T05:59:36;12.68;;;3.30;;
20890;SDS011;10605;52.968;8.844;2023-07-13T06:02:02;9.68;;;2.85;;
20890;SDS011;10605;52.968;8.844;2023-07-13T06:04:27;9.52;;;2.22;;
20890;SDS011;10605;52.968;8.844;2023-07-13T06:06:53;9.73;;;3.38;;
20890;SDS011;10605;52.968;8.844;2023-07-13T06:09:19;5.90;;;2.80;;
20890;SDS011;10605;52.968;8.844;2023-07-13T06:11:52;7.00;;;2.35;;
20890;SDS011;10605;52.968;8.844;2023-07-13T06:14:18;8.95;;;2.38;;
20890;SDS011;10605;52.968;8.844;2023-07-13T06:16:44;13.68;;;2.25;;
20890;SDS011;10605;52.968;8.844;2023-07-13T06:19:10;10.00;;;2.40;;
20890;SDS011;10605;52.968;8.844;2023-07-13T06:21:36;7.38;;;2.33;;
20890;SDS011;10605;52.968;8.844;2023-07-13T06:24:01;8.90;;;2.20;;
20890;SDS011;10605;52.968;8.844;2023-07-13T06:26:27;11.77;;;2.30;;
20890;SDS011;10605;52.968;8.844;2023-07-13T06:28:53;6.80;;;2.30;;
20890;SDS011;10605;52.968;8.844;2023-07-13T06:31:19;11.73;;;2.70;;
20890;SDS011;10605;52.968;8.844;2023-07-13T06:33:44;7.22;;;2.08;;
20890;SDS011;10605;52.968;8.844;2023-07-13T06:36:10;10.02;;;2.90;;
20890;SDS011;10605;52.968;8.844;2023-07-13T06:38:36;7.88;;;2.45;;
20890;SDS011;10605;52.968;8.844;2023-07-13T06:41:02;12.90;;;2.60;;
20890;SDS011;10605;52.968;8.844;2023-07-13T06:43:29;12.60;;;2.60;;
20890;SDS011;10605;52.968;8.844;2023-07-13T06:45:56;11.23;;;2.60;;
20890;SDS011;10605;52.968;8.844;2023-07-13T06:48:22;6.75;;;2.35;;
20890;SDS011;10605;52.968;8.844;2023-07-13T06:50:49;8.52;;;1.88;;
20890;SDS011;10605;52.968;8.844;2023-07-13T06:53:17;14.20;;;2.88;;
20890;SDS011;10605;52.968;8.844;2023-07-13T06:55:43;10.85;;;2.70;;
20890;SDS011;10605;52.968;8.844;2023-07-13T06:58:10;8.43;;;2.78;;
20890;SDS011;10605;52.968;8.844;2023-07-13T07:00:36;9.15;;;2.25;;
20890;SDS011;10605;52.968;8.844;2023-07-13T07:03:01;7.80;;;2.90;;
20890;SDS011;10605;52.968;8.844;2023-07-13T07:05:27;7.40;;;2.38;;
20890;SDS011;10605;52.968;8.844;2023-07-13T07:07:54;12.88;;;2.60;;
20890;SDS011;10605;52.968;8.844;2023-07-13T07:10:20;7.05;;;2.35;;
20890;SDS011;10605;52.968;8.844;2023-07-13T07:12:46;10.30;;;2.53;;
20890;SDS011;10605;52.968;8.844;2023-07-13T07:15:12;11.40;;;2.95;;
20890;SDS011;10605;52.968;8.844;2023-07-13T07:17:38;7.63;;;2.40;;
20890;SDS011;10605;52.968;8.844;2023-07-13T07:20:04;8.65;;;2.10;;
20890;SDS011;10605;52.968;8.844;2023-07-13T07:22:31;7.75;;;2.78;;
20890;SDS011;10605;52.968;8.844;2023-07-13T07:24:57;12.52;;;3.03;;
20890;SDS011;10605;52.968;8.844;2023-07-13T07:27:22;8.57;;;2.25;;
20890;SDS011;10605;52.968;8.844;2023-07-13T07:29:49;6.40;;;2.10;;
20890;SDS011;10605;52.968;8.844;2023-07-13T07:32:15;7.72;;;2.08;;
20890;SDS011;10605;52.968;8.844;2023-07-13T07:34:40;10.77;;;2.30;;
20890;SDS011;10605;52.968;8.844;2023-07-13T07:37:06;7.47;;;2.95;;
20890;SDS011;10605;52.968;8.844;2023-07-13T07:39:34;10.20;;;2.63;;
20890;SDS011;10605;52.968;8.844;2023-07-13T07:42:00;14.07;;;2.72;;
20890;SDS011;10605;52.968;8.844;2023-07-13T07:44:25;9.73;;;2.70;;
20890;SDS011;10605;52.968;8.844;2023-07-13T07:46:52;4.90;;;2.55;;
20890;SDS011;10605;52.968;8.844;2023-07-13T07:49:17;9.57;;;3.42;;
20890;SDS011;10605;52.968;8.844;2023-07-13T07:51:43;14.15;;;2.97;;
20890;SDS011;10605;52.968;8.844;2023-07-13T07:54:09;10.35;;;2.10;;
20890;SDS011;10605;52.968;8.844;2023-07-13T07:56:34;5.43;;;2.50;;
20890;SDS011;10605;52.968;8.844;2023-07-13T07:59:00;5.60;;;2.38;;
20890;SDS011;10605;52.968;8.844;2023-07-13T08:01:26;10.07;;;2.42;;
20890;SDS011;10605;52.968;8.844;2023-07-13T08:03:51;5.55;;;2.30;;
20890;SDS011;10605;52.968;8.844;2023-07-13T08:06:17;9.80;;;2.55;;
20890;SDS011;10605;52.968;8.844;2023-07-13T08:08:44;9.23;;;2.60;;
20890;SDS011;10605;52.968;8.844;2023-07-13T08:11:10;7.82;;;3.00;;
20890;SDS011;10605;52.968;8.844;2023-07-13T08:13:36;8.13;;;2.67;;
20890;SDS011;10605;52.968;8.844;2023-07-13T08:16:03;10.68;;;2.53;;
20890;SDS011;10605;52.968;8.844;2023-07-13T08:18:30;13.20;;;2.97;;
20890;SDS011;10605;52.968;8.844;2023-07-13T08:20:55;8.65;;;2.90;;
20890;SDS011;10605;52.968;8.844;2023-07-13T08:23:22;6.47;;;2.42;;
20890;SDS011;10605;52.968;8.844;2023-07-13T08:25:54;6.72;;;2.20;;
20890;SDS011;10605;52.968;8.844;2023-07-13T08:28:23;9.75;;;2.38;;
20890;SDS011;10605;52.968;8.844;2023-07-13T08:30:50;7.57;;;2.97;;
20890;SDS011;10605;52.968;8.844;2023-07-13T08:33:16;5.80;;;2.00;;
20890;SDS011;10605;52.968;8.844;2023-07-13T08:35:45;6.70;;;2.80;;
20890;SDS011;10605;52.968;8.844;2023-07-13T08:38:12;6.97;;;1.70;;
20890;SDS011;10605;52.968;8.844;2023-07-13T08:40:37;4.43;;;1.85;;
20890;SDS011;10605;52.968;8.844;2023-07-13T08:43:06;5.80;;;2.38;;
20890;SDS011;10605;52.968;8.844;2023-07-13T08:45:46;6.15;;;2.38;;
20890;SDS011;10605;52.968;8.844;2023-07-13T08:51:04;6.75;;;1.60;;
20890;SDS011;10605;52.968;8.844;2023-07-13T08:53:36;4.60;;;2.08;;
20890;SDS011;10605;52.968;8.844;2023-07-13T08:56:07;5.43;;;2.45;;
20890;SDS011;10605;52.968;8.844;2023-07-13T08:58:39;7.72;;;2.00;;
20890;SDS011;10605;52.968;8.844;2023-07-13T09:06:39;5.60;;;2.75;;
20890;SDS011;10605;52.968;8.844;2023-07-13T09:12:30;5.38;;;1.85;;
20890;SDS011;10605;52.968;8.844;2023-07-13T09:15:21;6.78;;;1.80;;
20890;SDS011;10605;52.968;8.844;2023-07-13T09:21:14;9.60;;;2.28;;
20890;SDS011;10605;52.968;8.844;2023-07-13T09:23:43;5.63;;;1.83;;
20890;SDS011;10605;52.968;8.844;2023-07-13T09:28:44;4.82;;;1.90;;
20890;SDS011;10605;52.968;8.844;2023-07-13T09:31:16;9.40;;;1.70;;
20890;SDS011;10605;52.968;8.844;2023-07-13T09:33:46;3.75;;;1.67;;
20890;SDS011;10605;52.968;8.844;2023-07-13T09:36:24;6.25;;;1.63;;
20890;SDS011;10605;52.968;8.844;2023-07-13T09:42:12;8.35;;;1.83;;
20890;SDS011;10605;52.968;8.844;2023-07-13T09:47:16;2.83;;;1.48;;
20890;SDS011;10605;52.968;8.844;2023-07-13T09:50:02;4.03;;;1.70;;
20890;SDS011;10605;52.968;8.844;2023-07-13T09:52:40;3.80;;;2.13;;
20890;SDS011;10605;52.968;8.844;2023-07-13T09:55:29;2.90;;;1.85;;
20890;SDS011;10605;52.968;8.844;2023-07-13T09:58:19;2.88;;;1.55;;
20890;SDS011;10605;52.968;8.844;2023-07-13T10:03:23;7.05;;;1.80;;
20890;SDS011;10605;52.968;8.844;2023-07-13T10:06:14;4.90;;;1.60;;
20890;SDS011;10605;52.968;8.844;2023-07-13T10:08:42;4.45;;;1.90;;
20890;SDS011;10605;52.968;8.844;2023-07-13T10:14:15;4.82;;;1.40;;
20890;SDS011;10605;52.968;8.844;2023-07-13T10:16:48;5.20;;;1.80;;
20890;SDS011;10605;52.968;8.844;2023-07-13T10:19:29;4.45;;;1.55;;
20890;SDS011;10605;52.968;8.844;2023-07-13T10:22:14;5.10;;;1.80;;
20890;SDS011;10605;52.968;8.844;2023-07-13T10:35:10;5.40;;;1.75;;
20890;SDS011;10605;52.968;8.844;2023-07-13T10:37:42;5.88;;;1.55;;
20890;SDS011;10605;52.968;8.844;2023-07-13T10:40:25;2.88;;;1.40;;
20890;SDS011;10605;52.968;8.844;2023-07-13T10:42:57;3.50;;;1.58;;
20890;SDS011;10605;52.968;8.844;2023-07-13T10:45:26;5.78;;;1.30;;
20890;SDS011;10605;52.968;8.844;2023-07-13T10:47:56;2.97;;;1.52;;
20890;SDS011;10605;52.968;8.844;2023-07-13T10:50:23;4.53;;;1.80;;
20890;SDS011;10605;52.968;8.844;2023-07-13T10:52:53;3.80;;;1.30;;
20890;SDS011;10605;52.968;8.844;2023-07-13T10:58:41;5.95;;;2.33;;
20890;SDS011;10605;52.968;8.844;2023-07-13T11:01:07;8.20;;;3.35;;
20890;SDS011;10605;52.968;8.844;2023-07-13T11:03:38;4.97;;;2.40;;
20890;SDS011;10605;52.968;8.844;2023-07-13T11:08:55;4.78;;;2.08;;
20890;SDS011;10605;52.968;8.844;2023-07-13T11:13:55;2.28;;;1.90;;
20890;SDS011;10605;52.968;8.844;2023-07-13T11:18:50;6.60;;;2.28;;
20890;SDS011;10605;52.968;8.844;2023-07-13T11:21:18;5.55;;;1.88;;
20890;SDS011;10605;52.968;8.844;2023-07-13T11:23:55;6.45;;;2.92;;
20890;SDS011;10605;52.968;8.844;2023-07-13T11:31:56;3.50;;;2.13;;
20890;SDS011;10605;52.968;8.844;2023-07-13T11:34:27;2.40;;;1.75;;
20890;SDS011;10605;52.968;8.844;2023-07-13T11:36:56;3.95;;;2.13;;
20890;SDS011;10605;52.968;8.844;2023-07-13T11:42:07;2.85;;;2.03;;
20890;SDS011;10605;52.968;8.844;2023-07-13T11:44:41;3.70;;;2.22;;
20890;SDS011;10605;52.968;8.844;2023-07-13T11:47:14;2.58;;;2.30;;
20890;SDS011;10605;52.968;8.844;2023-07-13T11:49:45;1.85;;;1.73;;
20890;SDS011;10605;52.968;8.844;2023-07-13T11:52:15;3.35;;;1.63;;
20890;SDS011;10605;52.968;8.844;2023-07-13T11:54:50;9.63;;;2.13;;
20890;SDS011;10605;52.968;8.844;2023-07-13T11:57:24;2.22;;;1.73;;
20890;SDS011;10605;52.968;8.844;2023-07-13T11:59:54;1.60;;;1.40;;
20890;SDS011;10605;52.968;8.844;2023-07-13T12:04:52;1.55;;;1.20;;
20890;SDS011;10605;52.968;8.844;2023-07-13T12:07:18;1.92;;;1.35;;
20890;SDS011;10605;52.968;8.844;2023-07-13T12:09:44;3.72;;;1.40;;
20890;SDS011;10605;52.968;8.844;2023-07-13T12:12:11;1.40;;;1.30;;
20890;SDS011;10605;52.968;8.844;2023-07-13T12:14:38;1.90;;;1.20;;
20890;SDS011;10605;52.968;8.844;2023-07-13T12:17:09;1.15;;;0.98;;
20890;SDS011;10605;52.968;8.844;2023-07-13T12:19:47;2.80;;;1.40;;
20890;SDS011;10605;52.968;8.844;2023-07-13T12:22:14;1.98;;;1.48;;
20890;SDS011;10605;52.968;8.844;2023-07-13T12:24:43;4.15;;;1.10;;
20890;SDS011;10605;52.968;8.844;2023-07-13T12:27:22;1.65;;;1.17;;
20890;SDS011;10605;52.968;8.844;2023-07-13T12:30:01;1.23;;;1.17;;
20890;SDS011;10605;52.968;8.844;2023-07-13T12:32:30;2.70;;;1.33;;
20890;SDS011;10605;52.968;8.844;2023-07-13T12:35:13;1.02;;;1.02;;
20890;SDS011;10605;52.968;8.844;2023-07-13T12:37:43;1.23;;;1.10;;
20890;SDS011;10605;52.968;8.844;2023-07-13T12:40:17;1.60;;;1.08;;
20890;SDS011;10605;52.968;8.844;2023-07-13T12:42:48;1.90;;;1.00;;
20890;SDS011;10605;52.968;8.844;2023-07-13T12:47:50;1.00;;;1.00;;
20890;SDS011;10605;52.968;8.844;2023-07-13T12:50:33;1.40;;;0.90;;
20890;SDS011;10605;52.968;8.844;2023-07-13T12:53:04;3.65;;;0.85;;
20890;SDS011;10605;52.968;8.844;2023-07-13T12:55:44;1.13;;;0.82;;
20890;SDS011;10605;52.968;8.844;2023-07-13T12:58:16;0.85;;;0.80;;
20890;SDS011;10605;52.968;8.844;2023-07-13T13:01:05;0.90;;;0.80;;
20890;SDS011;10605;52.968;8.844;2023-07-13T13:03:35;1.17;;;0.88;;
20890;SDS011;10605;52.968;8.844;2023-07-13T13:06:19;2.80;;;0.82;;
20890;SDS011;10605;52.968;8.844;2023-07-13T13:08:57;1.15;;;0.98;;
20890;SDS011;10605;52.968;8.844;2023-07-13T13:11:25;1.25;;;0.55;;
20890;SDS011;10605;52.968;8.844;2023-07-13T13:13:51;2.95;;;0.70;;
20890;SDS011;10605;52.968;8.844;2023-07-13T13:19:01;0.85;;;0.70;;
20890;SDS011;10605;52.968;8.844;2023-07-13T13:21:42;1.77;;;0.90;;
20890;SDS011;10605;52.968;8.844;2023-07-13T13:24:12;0.75;;;0.75;;
20890;SDS011;10605;52.968;8.844;2023-07-13T13:26:42;1.48;;;0.73;;
20890;SDS011;10605;52.968;8.844;2023-07-13T13:29:18;0.90;;;0.55;;
20890;SDS011;10605;52.968;8.844;2023-07-13T13:31:45;0.60;;;0.55;;
20890;SDS011;10605;52.968;8.844;2023-07-13T13:34:12;0.77;;;0.75;;
20890;SDS011;10605;52.968;8.844;2023-07-13T13:36:40;1.50;;;0.63;;
20890;SDS011;10605;52.968;8.844;2023-07-13T13:39:21;2.80;;;0.63;;
20890;SDS011;10605;52.968;8.844;2023-07-13T13:41:53;1.15;;;0.70;;
20890;SDS011;10605;52.968;8.844;2023-07-13T13:44:19;1.17;;;0.60;;
20890;SDS011;10605;52.968;8.844;2023-07-13T13:46:46;1.15;;;0.65;;
20890;SDS011;10605;52.968;8.844;2023-07-13T13:49:14;0.50;;;0.50;;
20890;SDS011;10605;52.968;8.844;2023-07-13T13:51:42;0.70;;;0.70;;
20890;SDS011;10605;52.968;8.844;2023-07-13T13:54:10;1.58;;;1.20;;
20890;SDS011;10605;52.968;8.844;2023-07-13T13:56:37;1.63;;;1.30;;
20890;SDS011;10605;52.968;8.844;2023-07-13T13:59:03;1.65;;;1.55;;
20890;SDS011;10605;52.968;8.844;2023-07-13T14:01:29;1.42;;;1.23;;
20890;SDS011;10605;52.968;8.844;2023-07-13T14:03:56;1.60;;;1.48;;
20890;SDS011;10605;52.968;8.844;2023-07-13T14:06:22;1.88;;;1.73;;
20890;SDS011;10605;52.968;8.844;2023-07-13T14:08:48;2.20;;;2.00;;
20890;SDS011;10605;52.968;8.844;2023-07-13T14:11:14;1.95;;;1.70;;
20890;SDS011;10605;52.968;8.844;2023-07-13T14:13:43;6.07;;;2.40;;
20890;SDS011;10605;52.968;8.844;2023-07-13T14:16:15;3.78;;;2.22;;
20890;SDS011;10605;52.968;8.844;2023-07-13T14:18:45;3.40;;;1.90;;
20890;SDS011;10605;52.968;8.844;2023-07-13T14:21:15;3.88;;;2.30;;
20890;SDS011;10605;52.968;8.844;2023-07-13T14:23:43;4.30;;;2.22;;
20890;SDS011;10605;52.968;8.844;2023-07-13T14:26:11;3.13;;;2.45;;
20890;SDS011;10605;52.968;8.844;2023-07-13T14:28:38;4.40;;;2.58;;
20890;SDS011;10605;52.968;8.844;2023-07-13T14:31:08;2.25;;;2.05;;
20890;SDS011;10605;52.968;8.844;2023-07-13T14:33:34;2.90;;;2.17;;
20890;SDS011;10605;52.968;8.844;2023-07-13T14:36:00;4.10;;;2.55;;
20890;SDS011;10605;52.968;8.844;2023-07-13T14:38:27;3.25;;;2.30;;
20890;SDS011;10605;52.968;8.844;2023-07-13T14:40:53;6.07;;;2.60;;
20890;SDS011;10605;52.968;8.844;2023-07-13T14:43:19;3.17;;;2.30;;
20890;SDS011;10605;52.968;8.844;2023-07-13T14:45:47;5.05;;;2.40;;
20890;SDS011;10605;52.968;8.844;2023-07-13T14:48:21;3.45;;;2.03;;
20890;SDS011;10605;52.968;8.844;2023-07-13T14:50:56;5.50;;;2.30;;
20890;SDS011;10605;52.968;8.844;2023-07-13T14:53:24;4.70;;;2.10;;
20890;SDS011;10605;52.968;8.844;2023-07-13T14:55:54;2.25;;;1.85;;
20890;SDS011;10605;52.968;8.844;2023-07-13T14:58:20;2.10;;;1.60;;
20890;SDS011;10605;52.968;8.844;2023-07-13T15:00:45;1.83;;;1.45;;
20890;SDS011;10605;52.968;8.844;2023-07-13T15:03:21;3.40;;;1.73;;
20890;SDS011;10605;52.968;8.844;2023-07-13T15:05:49;4.18;;;2.13;;
20890;SDS011;10605;52.968;8.844;2023-07-13T15:08:15;1.60;;;1.50;;
20890;SDS011;10605;52.968;8.844;2023-07-13T15:10:41;2.92;;;1.60;;
20890;SDS011;10605;52.968;8.844;2023-07-13T15:13:17;2.00;;;1.50;;
20890;SDS011;10605;52.968;8.844;2023-07-13T15:15:49;3.67;;;1.58;;
20890;SDS011;10605;52.968;8.844;2023-07-13T15:18:18;3.70;;;1.50;;
20890;SDS011;10605;52.968;8.844;2023-07-13T15:20:47;2.58;;;1.48;;
20890;SDS011;10605;52.968;8.844;2023-07-13T15:23:14;2.33;;;1.67;;
20890;SDS011;10605;52.968;8.844;2023-07-13T15:25:41;2.72;;;1.60;;
20890;SDS011;10605;52.968;8.844;2023-07-13T15:28:09;2.72;;;1.70;;
20890;SDS011;10605;52.968;8.844;2023-07-13T15:30:38;2.05;;;1.77;;
20890;SDS011;10605;52.968;8.844;2023-07-13T15:33:30;1.42;;;1.30;;
20890;SDS011;10605;52.968;8.844;2023-07-13T15:35:56;2.88;;;1.65;;
20890;SDS011;10605;52.968;8.844;2023-07-13T15:38:31;2.38;;;1.50;;
20890;SDS011;10605;52.968;8.844;2023-07-13T15:40:59;5.25;;;2.45;;
20890;SDS011;10605;52.968;8.844;2023-07-13T15:43:25;2.47;;;2.03;;
20890;SDS011;10605;52.968;8.844;2023-07-13T15:45:51;3.50;;;1.80;;
20890;SDS011;10605;52.968;8.844;2023-07-13T15:48:18;3.80;;;0.82;;
20890;SDS011;10605;52.968;8.844;2023-07-13T15:50:53;1.73;;;0.50;;
20890;SDS011;10605;52.968;8.844;2023-07-13T15:53:24;1.15;;;0.50;;